sensor_id;sensor_type;location;lat;lon;timestamp;P1;durP1;ratioP1;P2;durP2;ratioP2
4468;SDS011;2247;42.666;23.292;2023-02-13T02:14:20;68.63;;;30.80;;
4468;SDS011;2247;42.666;23.292;2023-02-13T02:16:47;65.27;;;30.77;;
4468;SDS011;2247;42.666;23.292;2023-02-13T02:19:15;62.90;;;30.50;;
4468;SDS011;2247;42.666;23.292;2023-02-13T02:22:05;69.27;;;30.80;;
4468;SDS011;2247;42.666;23.292;2023-02-13T02:25:08;61.50;;;28.73;;
4468;SDS011;2247;42.666;23.292;2023-02-13T02:28:13;62.10;;;30.67;;
4468;SDS011;2247;42.666;23.292;2023-02-13T02:34:05;64.90;;;30.70;;
4468;SDS011;2247;42.666;23.292;2023-02-13T02:36:48;66.97;;;31.33;;
4468;SDS011;2247;42.666;23.292;2023-02-13T02:39:29;62.33;;;30.53;;
4468;SDS011;2247;42.666;23.292;2023-02-13T02:42:09;57.70;;;28.17;;
4468;SDS011;2247;42.666;23.292;2023-02-13T02:44:50;63.23;;;31.30;;
4468;SDS011;2247;42.666;23.292;2023-02-13T02:47:26;60.50;;;28.43;;
4468;SDS011;2247;42.666;23.292;2023-02-13T02:50:21;66.80;;;30.53;;
4468;SDS011;2247;42.666;23.292;2023-02-13T02:53:02;56.20;;;28.40;;
4468;SDS011;2247;42.666;23.292;2023-02-13T02:55:36;57.60;;;28.07;;
4468;SDS011;2247;42.666;23.292;2023-02-13T02:58:08;60.77;;;29.00;;
4468;SDS011;2247;42.666;23.292;2023-02-13T03:00:58;59.13;;;29.77;;
4468;SDS011;2247;42.666;23.292;2023-02-13T03:03:44;59.57;;;28.73;;
4468;SDS011;2247;42.666;23.292;2023-02-13T03:06:33;63.00;;;28.07;;
4468;SDS011;2247;42.666;23.292;2023-02-13T03:09:08;58.27;;;28.03;;
4468;SDS011;2247;42.666;23.292;2023-02-13T03:11:55;61.20;;;29.53;;
4468;SDS011;2247;42.666;23.292;2023-02-13T03:14:40;57.63;;;27.70;;
4468;SDS011;2247;42.666;23.292;2023-02-13T03:17:08;60.17;;;28.30;;
4468;SDS011;2247;42.666;23.292;2023-02-13T03:19:57;59.97;;;29.07;;
4468;SDS011;2247;42.666;23.292;2023-02-13T03:22:57;58.43;;;28.67;;
4468;SDS011;2247;42.666;23.292;2023-02-13T03:25:34;62.53;;;30.03;;
4468;SDS011;2247;42.666;23.292;2023-02-13T03:28:10;56.17;;;27.63;;
4468;SDS011;2247;42.666;23.292;2023-02-13T03:31:02;59.20;;;28.40;;
4468;SDS011;2247;42.666;23.292;2023-02-13T03:33:46;56.10;;;27.03;;
4468;SDS011;2247;42.666;23.292;2023-02-13T03:36:23;58.67;;;28.33;;
4468;SDS011;2247;42.666;23.292;2023-02-13T03:39:16;59.10;;;28.00;;
4468;SDS011;2247;42.666;23.292;2023-02-13T03:41:48;60.50;;;28.30;;
4468;SDS011;2247;42.666;23.292;2023-02-13T03:44:22;61.30;;;28.20;;
4468;SDS011;2247;42.666;23.292;2023-02-13T03:46:54;52.50;;;27.20;;
4468;SDS011;2247;42.666;23.292;2023-02-13T03:49:25;66.43;;;28.50;;
4468;SDS011;2247;42.666;23.292;2023-02-13T03:52:15;55.97;;;27.87;;
4468;SDS011;2247;42.666;23.292;2023-02-13T03:54:49;54.13;;;27.20;;
4468;SDS011;2247;42.666;23.292;2023-02-13T03:57:37;56.87;;;26.60;;
4468;SDS011;2247;42.666;23.292;2023-02-13T04:00:24;55.93;;;28.33;;
4468;SDS011;2247;42.666;23.292;2023-02-13T04:02:59;55.37;;;27.07;;
4468;SDS011;2247;42.666;23.292;2023-02-13T04:05:35;58.73;;;28.20;;
4468;SDS011;2247;42.666;23.292;2023-02-13T04:08:06;56.93;;;26.73;;
4468;SDS011;2247;42.666;23.292;2023-02-13T04:10:38;56.50;;;27.97;;
4468;SDS011;2247;42.666;23.292;2023-02-13T04:13:12;59.07;;;27.77;;
4468;SDS011;2247;42.666;23.292;2023-02-13T04:15:45;60.40;;;27.90;;
4468;SDS011;2247;42.666;23.292;2023-02-13T04:18:16;59.23;;;28.60;;
4468;SDS011;2247;42.666;23.292;2023-02-13T04:20:47;54.60;;;26.70;;
4468;SDS011;2247;42.666;23.292;2023-02-13T04:23:14;65.90;;;28.27;;
4468;SDS011;2247;42.666;23.292;2023-02-13T04:25:44;57.60;;;27.03;;
4468;SDS011;2247;42.666;23.292;2023-02-13T04:28:14;52.77;;;27.17;;
4468;SDS011;2247;42.666;23.292;2023-02-13T04:30:40;49.77;;;25.60;;
4468;SDS011;2247;42.666;23.292;2023-02-13T04:33:08;50.40;;;24.80;;
4468;SDS011;2247;42.666;23.292;2023-02-13T04:35:35;57.07;;;28.23;;
4468;SDS011;2247;42.666;23.292;2023-02-13T04:38:02;54.03;;;26.73;;
4468;SDS011;2247;42.666;23.292;2023-02-13T04:40:29;50.90;;;25.80;;
4468;SDS011;2247;42.666;23.292;2023-02-13T04:42:58;54.13;;;26.67;;
4468;SDS011;2247;42.666;23.292;2023-02-13T04:45:25;55.03;;;26.87;;
4468;SDS011;2247;42.666;23.292;2023-02-13T04:47:52;55.30;;;27.57;;
4468;SDS011;2247;42.666;23.292;2023-02-13T04:50:21;60.73;;;27.67;;
4468;SDS011;2247;42.666;23.292;2023-02-13T04:52:49;63.07;;;28.37;;
4468;SDS011;2247;42.666;23.292;2023-02-13T04:55:19;56.10;;;27.10;;
4468;SDS011;2247;42.666;23.292;2023-02-13T04:57:46;56.97;;;26.97;;
4468;SDS011;2247;42.666;23.292;2023-02-13T05:00:15;52.60;;;26.90;;
4468;SDS011;2247;42.666;23.292;2023-02-13T05:02:43;56.37;;;27.57;;
4468;SDS011;2247;42.666;23.292;2023-02-13T05:05:10;55.60;;;27.77;;
4468;SDS011;2247;42.666;23.292;2023-02-13T05:07:39;55.00;;;27.53;;
4468;SDS011;2247;42.666;23.292;2023-02-13T05:10:08;55.63;;;26.67;;
4468;SDS011;2247;42.666;23.292;2023-02-13T05:12:40;54.57;;;26.73;;
4468;SDS011;2247;42.666;23.292;2023-02-13T05:15:08;56.63;;;26.90;;
4468;SDS011;2247;42.666;23.292;2023-02-13T05:17:38;60.57;;;27.20;;
4468;SDS011;2247;42.666;23.292;2023-02-13T05:20:06;58.43;;;28.23;;
4468;SDS011;2247;42.666;23.292;2023-02-13T05:22:35;53.03;;;26.50;;
4468;SDS011;2247;42.666;23.292;2023-02-13T05:25:20;51.90;;;25.77;;
4468;SDS011;2247;42.666;23.292;2023-02-13T05:37:26;54.00;;;27.50;;
4468;SDS011;2247;42.666;23.292;2023-02-13T05:40:07;50.80;;;26.67;;
4468;SDS011;2247;42.666;23.292;2023-02-13T05:42:48;53.70;;;26.70;;
4468;SDS011;2247;42.666;23.292;2023-02-13T05:45:35;60.10;;;29.53;;
4468;SDS011;2247;42.666;23.292;2023-02-13T05:48:16;63.30;;;30.70;;
4468;SDS011;2247;42.666;23.292;2023-02-13T05:56:37;56.03;;;27.20;;
4468;SDS011;2247;42.666;23.292;2023-02-13T05:59:12;59.17;;;30.50;;
4468;SDS011;2247;42.666;23.292;2023-02-13T06:01:40;60.23;;;28.87;;
4468;SDS011;2247;42.666;23.292;2023-02-13T06:04:08;56.63;;;28.63;;
4468;SDS011;2247;42.666;23.292;2023-02-13T06:06:35;58.53;;;28.70;;
4468;SDS011;2247;42.666;23.292;2023-02-13T06:09:02;50.33;;;25.27;;
4468;SDS011;2247;42.666;23.292;2023-02-13T06:11:30;51.00;;;26.80;;
4468;SDS011;2247;42.666;23.292;2023-02-13T06:13:59;56.83;;;27.10;;
4468;SDS011;2247;42.666;23.292;2023-02-13T06:16:26;56.90;;;29.13;;
4468;SDS011;2247;42.666;23.292;2023-02-13T06:18:55;56.90;;;29.00;;
4468;SDS011;2247;42.666;23.292;2023-02-13T06:21:22;60.77;;;29.43;;
4468;SDS011;2247;42.666;23.292;2023-02-13T06:23:50;61.07;;;28.60;;
4468;SDS011;2247;42.666;23.292;2023-02-13T06:26:18;61.50;;;28.13;;
4468;SDS011;2247;42.666;23.292;2023-02-13T06:28:46;60.00;;;27.97;;
4468;SDS011;2247;42.666;23.292;2023-02-13T06:31:15;56.30;;;28.20;;
4468;SDS011;2247;42.666;23.292;2023-02-13T06:33:42;64.03;;;30.83;;
4468;SDS011;2247;42.666;23.292;2023-02-13T06:36:09;62.70;;;31.30;;
4468;SDS011;2247;42.666;23.292;2023-02-13T06:38:36;61.80;;;30.87;;
4468;SDS011;2247;42.666;23.292;2023-02-13T06:41:03;63.60;;;31.13;;
4468;SDS011;2247;42.666;23.292;2023-02-13T06:43:31;61.37;;;30.50;;
4468;SDS011;2247;42.666;23.292;2023-02-13T06:45:58;67.50;;;32.10;;
4468;SDS011;2247;42.666;23.292;2023-02-13T06:51:25;66.13;;;31.93;;
4468;SDS011;2247;42.666;23.292;2023-02-13T06:53:54;64.33;;;31.07;;
4468;SDS011;2247;42.666;23.292;2023-02-13T06:56:35;62.10;;;30.70;;
4468;SDS011;2247;42.666;23.292;2023-02-13T07:12:31;56.27;;;27.80;;
4468;SDS011;2247;42.666;23.292;2023-02-13T07:15:05;53.30;;;26.40;;
4468;SDS011;2247;42.666;23.292;2023-02-13T07:17:48;51.60;;;26.57;;
4468;SDS011;2247;42.666;23.292;2023-02-13T07:25:47;44.83;;;22.67;;
4468;SDS011;2247;42.666;23.292;2023-02-13T07:33:24;51.60;;;24.93;;
4468;SDS011;2247;42.666;23.292;2023-02-13T07:35:51;46.27;;;23.47;;
4468;SDS011;2247;42.666;23.292;2023-02-13T07:38:18;51.13;;;25.87;;
4468;SDS011;2247;42.666;23.292;2023-02-13T07:40:47;53.53;;;24.70;;
4468;SDS011;2247;42.666;23.292;2023-02-13T07:43:15;47.90;;;24.70;;
4468;SDS011;2247;42.666;23.292;2023-02-13T07:45:42;45.23;;;22.93;;
4468;SDS011;2247;42.666;23.292;2023-02-13T07:48:12;56.97;;;26.70;;
4468;SDS011;2247;42.666;23.292;2023-02-13T07:50:41;54.30;;;26.47;;
4468;SDS011;2247;42.666;23.292;2023-02-13T07:53:07;55.00;;;26.63;;
4468;SDS011;2247;42.666;23.292;2023-02-13T07:55:35;53.77;;;26.50;;
4468;SDS011;2247;42.666;23.292;2023-02-13T07:58:04;49.50;;;24.93;;
4468;SDS011;2247;42.666;23.292;2023-02-13T08:00:31;49.80;;;23.53;;
4468;SDS011;2247;42.666;23.292;2023-02-13T08:02:58;49.17;;;23.70;;
4468;SDS011;2247;42.666;23.292;2023-02-13T08:05:25;49.13;;;24.17;;
4468;SDS011;2247;42.666;23.292;2023-02-13T08:07:52;50.40;;;25.77;;
4468;SDS011;2247;42.666;23.292;2023-02-13T08:10:19;50.23;;;25.30;;
4468;SDS011;2247;42.666;23.292;2023-02-13T08:13:05;49.07;;;24.07;;
4468;SDS011;2247;42.666;23.292;2023-02-13T08:15:32;49.43;;;24.40;;
4468;SDS011;2247;42.666;23.292;2023-02-13T08:17:59;48.87;;;23.60;;
4468;SDS011;2247;42.666;23.292;2023-02-13T08:20:27;48.97;;;24.50;;
4468;SDS011;2247;42.666;23.292;2023-02-13T08:22:53;50.00;;;25.43;;
4468;SDS011;2247;42.666;23.292;2023-02-13T08:25:27;57.00;;;25.87;;
4468;SDS011;2247;42.666;23.292;2023-02-13T08:27:54;50.03;;;24.50;;
4468;SDS011;2247;42.666;23.292;2023-02-13T08:30:22;49.60;;;24.40;;
4468;SDS011;2247;42.666;23.292;2023-02-13T08:32:49;52.63;;;25.53;;
4468;SDS011;2247;42.666;23.292;2023-02-13T08:35:16;52.50;;;25.40;;
4468;SDS011;2247;42.666;23.292;2023-02-13T08:37:42;48.37;;;24.13;;
4468;SDS011;2247;42.666;23.292;2023-02-13T08:40:10;48.60;;;24.70;;
4468;SDS011;2247;42.666;23.292;2023-02-13T08:42:37;51.83;;;25.70;;
4468;SDS011;2247;42.666;23.292;2023-02-13T08:45:04;52.50;;;25.33;;
4468;SDS011;2247;42.666;23.292;2023-02-13T08:47:32;53.30;;;25.90;;
4468;SDS011;2247;42.666;23.292;2023-02-13T08:49:59;58.93;;;29.20;;
4468;SDS011;2247;42.666;23.292;2023-02-13T08:52:26;59.00;;;28.03;;
4468;SDS011;2247;42.666;23.292;2023-02-13T08:54:53;55.07;;;27.70;;
4468;SDS011;2247;42.666;23.292;2023-02-13T08:57:19;56.10;;;26.30;;
4468;SDS011;2247;42.666;23.292;2023-02-13T08:59:46;50.63;;;26.03;;
4468;SDS011;2247;42.666;23.292;2023-02-13T09:02:13;51.93;;;26.80;;
4468;SDS011;2247;42.666;23.292;2023-02-13T09:04:41;55.13;;;26.97;;
4468;SDS011;2247;42.666;23.292;2023-02-13T09:07:08;57.30;;;27.43;;
4468;SDS011;2247;42.666;23.292;2023-02-13T09:09:36;57.17;;;27.93;;
4468;SDS011;2247;42.666;23.292;2023-02-13T09:12:03;57.57;;;27.53;;
4468;SDS011;2247;42.666;23.292;2023-02-13T09:14:30;59.17;;;27.93;;
4468;SDS011;2247;42.666;23.292;2023-02-13T09:16:58;54.33;;;28.20;;
4468;SDS011;2247;42.666;23.292;2023-02-13T09:19:25;58.83;;;28.80;;
4468;SDS011;2247;42.666;23.292;2023-02-13T09:21:53;59.90;;;29.70;;
4468;SDS011;2247;42.666;23.292;2023-02-13T09:24:20;52.37;;;27.70;;
4468;SDS011;2247;42.666;23.292;2023-02-13T09:26:47;55.23;;;28.67;;
4468;SDS011;2247;42.666;23.292;2023-02-13T09:29:14;54.13;;;28.10;;
4468;SDS011;2247;42.666;23.292;2023-02-13T09:31:41;55.83;;;27.80;;
4468;SDS011;2247;42.666;23.292;2023-02-13T09:34:08;55.97;;;29.20;;
4468;SDS011;2247;42.666;23.292;2023-02-13T09:36:34;51.73;;;28.00;;
4468;SDS011;2247;42.666;23.292;2023-02-13T09:39:03;49.87;;;26.90;;
4468;SDS011;2247;42.666;23.292;2023-02-13T09:41:30;56.77;;;27.80;;
4468;SDS011;2247;42.666;23.292;2023-02-13T09:44:01;57.90;;;29.40;;
4468;SDS011;2247;42.666;23.292;2023-02-13T09:46:34;59.73;;;28.40;;
4468;SDS011;2247;42.666;23.292;2023-02-13T09:49:04;56.83;;;28.23;;
4468;SDS011;2247;42.666;23.292;2023-02-13T09:51:33;60.83;;;26.53;;
4468;SDS011;2247;42.666;23.292;2023-02-13T09:54:01;54.53;;;27.83;;
4468;SDS011;2247;42.666;23.292;2023-02-13T09:56:36;57.50;;;28.97;;
4468;SDS011;2247;42.666;23.292;2023-02-13T09:59:09;52.80;;;26.83;;
4468;SDS011;2247;42.666;23.292;2023-02-13T10:01:51;53.87;;;27.57;;
4468;SDS011;2247;42.666;23.292;2023-02-13T10:04:35;54.83;;;27.90;;
4468;SDS011;2247;42.666;23.292;2023-02-13T10:07:14;66.67;;;30.23;;
4468;SDS011;2247;42.666;23.292;2023-02-13T10:09:54;56.30;;;27.87;;
4468;SDS011;2247;42.666;23.292;2023-02-13T10:15:22;58.80;;;28.47;;
4468;SDS011;2247;42.666;23.292;2023-02-13T10:17:57;58.50;;;27.70;;
4468;SDS011;2247;42.666;23.292;2023-02-13T10:20:30;50.80;;;25.60;;
4468;SDS011;2247;42.666;23.292;2023-02-13T10:23:15;59.53;;;25.70;;
4468;SDS011;2247;42.666;23.292;2023-02-13T10:25:49;51.53;;;25.73;;
4468;SDS011;2247;42.666;23.292;2023-02-13T10:28:24;54.70;;;25.87;;
4468;SDS011;2247;42.666;23.292;2023-02-13T10:30:56;52.20;;;26.03;;
4468;SDS011;2247;42.666;23.292;2023-02-13T10:33:28;53.83;;;26.47;;
4468;SDS011;2247;42.666;23.292;2023-02-13T10:36:00;49.83;;;25.20;;
4468;SDS011;2247;42.666;23.292;2023-02-13T10:38:31;46.07;;;24.27;;
4468;SDS011;2247;42.666;23.292;2023-02-13T10:41:04;48.80;;;24.60;;
4468;SDS011;2247;42.666;23.292;2023-02-13T10:43:49;47.17;;;24.37;;
4468;SDS011;2247;42.666;23.292;2023-02-13T10:46:30;57.57;;;25.30;;
4468;SDS011;2247;42.666;23.292;2023-02-13T10:49:11;51.97;;;25.67;;
4468;SDS011;2247;42.666;23.292;2023-02-13T10:51:54;67.60;;;27.67;;
4468;SDS011;2247;42.666;23.292;2023-02-13T10:54:31;50.50;;;24.20;;
4468;SDS011;2247;42.666;23.292;2023-02-13T10:57:15;45.40;;;23.30;;
4468;SDS011;2247;42.666;23.292;2023-02-13T10:59:54;51.30;;;24.17;;
4468;SDS011;2247;42.666;23.292;2023-02-13T11:02:29;50.07;;;24.70;;
4468;SDS011;2247;42.666;23.292;2023-02-13T11:04:59;43.97;;;22.00;;
4468;SDS011;2247;42.666;23.292;2023-02-13T11:07:28;46.40;;;22.37;;
4468;SDS011;2247;42.666;23.292;2023-02-13T11:09:57;49.07;;;23.93;;
4468;SDS011;2247;42.666;23.292;2023-02-13T11:12:30;44.03;;;21.67;;
4468;SDS011;2247;42.666;23.292;2023-02-13T11:14:59;45.83;;;21.90;;
4468;SDS011;2247;42.666;23.292;2023-02-13T11:17:29;48.17;;;20.50;;
4468;SDS011;2247;42.666;23.292;2023-02-13T11:19:58;41.63;;;21.23;;
4468;SDS011;2247;42.666;23.292;2023-02-13T11:22:27;48.57;;;19.70;;
4468;SDS011;2247;42.666;23.292;2023-02-13T11:24:58;37.00;;;20.07;;
4468;SDS011;2247;42.666;23.292;2023-02-13T11:27:28;41.77;;;21.33;;
4468;SDS011;2247;42.666;23.292;2023-02-13T11:30:00;40.43;;;20.20;;
4468;SDS011;2247;42.666;23.292;2023-02-13T11:32:29;36.33;;;18.37;;
4468;SDS011;2247;42.666;23.292;2023-02-13T11:34:58;39.73;;;18.43;;
4468;SDS011;2247;42.666;23.292;2023-02-13T11:37:59;36.00;;;18.07;;
4468;SDS011;2247;42.666;23.292;2023-02-13T11:40:37;38.20;;;19.77;;
4468;SDS011;2247;42.666;23.292;2023-02-13T11:43:07;40.43;;;19.90;;
4468;SDS011;2247;42.666;23.292;2023-02-13T11:45:42;41.20;;;20.80;;
4468;SDS011;2247;42.666;23.292;2023-02-13T11:48:15;39.70;;;20.70;;
4468;SDS011;2247;42.666;23.292;2023-02-13T11:50:49;39.80;;;18.90;;
4468;SDS011;2247;42.666;23.292;2023-02-13T11:53:18;34.87;;;19.50;;
4468;SDS011;2247;42.666;23.292;2023-02-13T11:55:59;34.50;;;18.10;;
4468;SDS011;2247;42.666;23.292;2023-02-13T11:58:29;28.70;;;15.57;;
4468;SDS011;2247;42.666;23.292;2023-02-13T12:01:07;27.67;;;15.47;;
4468;SDS011;2247;42.666;23.292;2023-02-13T12:03:55;29.13;;;15.83;;
4468;SDS011;2247;42.666;23.292;2023-02-13T12:06:26;32.10;;;15.60;;
4468;SDS011;2247;42.666;23.292;2023-02-13T12:08:53;29.30;;;15.50;;
4468;SDS011;2247;42.666;23.292;2023-02-13T12:11:21;27.93;;;15.53;;
4468;SDS011;2247;42.666;23.292;2023-02-13T12:13:52;26.60;;;14.77;;
4468;SDS011;2247;42.666;23.292;2023-02-13T12:16:29;26.67;;;14.30;;
4468;SDS011;2247;42.666;23.292;2023-02-13T12:19:03;28.30;;;14.23;;
4468;SDS011;2247;42.666;23.292;2023-02-13T12:21:40;25.73;;;14.80;;
4468;SDS011;2247;42.666;23.292;2023-02-13T12:24:19;27.43;;;15.53;;
4468;SDS011;2247;42.666;23.292;2023-02-13T12:27:06;31.17;;;15.40;;
4468;SDS011;2247;42.666;23.292;2023-02-13T12:29:49;29.83;;;14.27;;
4468;SDS011;2247;42.666;23.292;2023-02-13T12:32:32;26.97;;;15.20;;
4468;SDS011;2247;42.666;23.292;2023-02-13T12:35:19;29.53;;;14.97;;
4468;SDS011;2247;42.666;23.292;2023-02-13T12:37:58;24.43;;;14.07;;
4468;SDS011;2247;42.666;23.292;2023-02-13T12:40:38;25.83;;;13.20;;
4468;SDS011;2247;42.666;23.292;2023-02-13T12:43:16;31.60;;;16.00;;
4468;SDS011;2247;42.666;23.292;2023-02-13T12:46:05;25.87;;;14.03;;
4468;SDS011;2247;42.666;23.292;2023-02-13T12:48:39;23.13;;;13.40;;
4468;SDS011;2247;42.666;23.292;2023-02-13T12:51:20;32.73;;;14.20;;
4468;SDS011;2247;42.666;23.292;2023-02-13T12:56:58;26.33;;;14.53;;
4468;SDS011;2247;42.666;23.292;2023-02-13T12:59:40;24.43;;;13.20;;
4468;SDS011;2247;42.666;23.292;2023-02-13T13:02:30;26.53;;;13.93;;
4468;SDS011;2247;42.666;23.292;2023-02-13T13:05:34;22.20;;;12.83;;
4468;SDS011;2247;42.666;23.292;2023-02-13T13:11:12;23.70;;;13.30;;
4468;SDS011;2247;42.666;23.292;2023-02-13T13:13:50;24.67;;;13.43;;
4468;SDS011;2247;42.666;23.292;2023-02-13T13:16:27;21.83;;;12.70;;
4468;SDS011;2247;42.666;23.292;2023-02-13T13:19:06;28.97;;;13.37;;
4468;SDS011;2247;42.666;23.292;2023-02-13T13:21:40;23.87;;;13.33;;
4468;SDS011;2247;42.666;23.292;2023-02-13T13:24:22;23.97;;;13.57;;
4468;SDS011;2247;42.666;23.292;2023-02-13T13:26:57;24.70;;;13.00;;
4468;SDS011;2247;42.666;23.292;2023-02-13T13:29:26;23.97;;;13.30;;
4468;SDS011;2247;42.666;23.292;2023-02-13T13:31:59;23.93;;;13.30;;
4468;SDS011;2247;42.666;23.292;2023-02-13T13:34:30;23.03;;;13.27;;
4468;SDS011;2247;42.666;23.292;2023-02-13T13:37:01;30.47;;;14.10;;
4468;SDS011;2247;42.666;23.292;2023-02-13T13:39:40;20.40;;;12.33;;
4468;SDS011;2247;42.666;23.292;2023-02-13T13:42:15;23.33;;;12.73;;
4468;SDS011;2247;42.666;23.292;2023-02-13T13:44:51;26.33;;;13.70;;
4468;SDS011;2247;42.666;23.292;2023-02-13T13:47:31;24.63;;;12.57;;
4468;SDS011;2247;42.666;23.292;2023-02-13T13:50:20;25.50;;;12.73;;
4468;SDS011;2247;42.666;23.292;2023-02-13T13:53:04;23.30;;;13.37;;
4468;SDS011;2247;42.666;23.292;2023-02-13T13:58:31;23.50;;;12.90;;
4468;SDS011;2247;42.666;23.292;2023-02-13T14:01:23;23.73;;;13.97;;
4468;SDS011;2247;42.666;23.292;2023-02-13T14:03:52;23.93;;;13.77;;
4468;SDS011;2247;42.666;23.292;2023-02-13T14:06:21;21.97;;;12.70;;
4468;SDS011;2247;42.666;23.292;2023-02-13T14:09:00;22.70;;;13.17;;
4468;SDS011;2247;42.666;23.292;2023-02-13T14:11:42;24.17;;;12.57;;
4468;SDS011;2247;42.666;23.292;2023-02-13T14:20:33;23.33;;;13.03;;
4468;SDS011;2247;42.666;23.292;2023-02-13T14:23:07;22.73;;;13.10;;
4468;SDS011;2247;42.666;23.292;2023-02-13T14:25:43;22.83;;;12.87;;
4468;SDS011;2247;42.666;23.292;2023-02-13T14:28:17;24.30;;;13.20;;
4468;SDS011;2247;42.666;23.292;2023-02-13T14:30:47;27.00;;;13.07;;
4468;SDS011;2247;42.666;23.292;2023-02-13T14:33:23;23.17;;;12.63;;
4468;SDS011;2247;42.666;23.292;2023-02-13T14:36:00;23.90;;;12.57;;
4468;SDS011;2247;42.666;23.292;2023-02-13T14:38:32;22.87;;;12.80;;
4468;SDS011;2247;42.666;23.292;2023-02-13T14:41:01;20.23;;;12.43;;
4468;SDS011;2247;42.666;23.292;2023-02-13T14:46:21;21.63;;;12.87;;
4468;SDS011;2247;42.666;23.292;2023-02-13T14:48:55;21.53;;;11.90;;
4468;SDS011;2247;42.666;23.292;2023-02-13T14:51:28;25.93;;;12.47;;
4468;SDS011;2247;42.666;23.292;2023-02-13T14:54:02;24.40;;;12.87;;
4468;SDS011;2247;42.666;23.292;2023-02-13T14:56:32;27.60;;;12.90;;
4468;SDS011;2247;42.666;23.292;2023-02-13T14:59:01;20.50;;;12.20;;
4468;SDS011;2247;42.666;23.292;2023-02-13T15:01:40;21.17;;;12.90;;
4468;SDS011;2247;42.666;23.292;2023-02-13T15:04:11;20.00;;;12.10;;
4468;SDS011;2247;42.666;23.292;2023-02-13T15:06:42;23.03;;;12.70;;
4468;SDS011;2247;42.666;23.292;2023-02-13T15:09:16;25.60;;;11.63;;
4468;SDS011;2247;42.666;23.292;2023-02-13T15:11:49;20.60;;;11.50;;
4468;SDS011;2247;42.666;23.292;2023-02-13T15:14:17;22.07;;;12.80;;
4468;SDS011;2247;42.666;23.292;2023-02-13T15:16:47;22.43;;;12.90;;
4468;SDS011;2247;42.666;23.292;2023-02-13T15:19:18;21.37;;;11.83;;
4468;SDS011;2247;42.666;23.292;2023-02-13T15:21:47;26.93;;;11.70;;
4468;SDS011;2247;42.666;23.292;2023-02-13T15:24:18;21.87;;;12.00;;
4468;SDS011;2247;42.666;23.292;2023-02-13T15:26:52;22.47;;;12.33;;
4468;SDS011;2247;42.666;23.292;2023-02-13T15:29:25;24.27;;;11.93;;
4468;SDS011;2247;42.666;23.292;2023-02-13T15:31:52;20.43;;;12.00;;
4468;SDS011;2247;42.666;23.292;2023-02-13T15:34:22;20.30;;;11.97;;
4468;SDS011;2247;42.666;23.292;2023-02-13T15:36:52;23.60;;;12.37;;
4468;SDS011;2247;42.666;23.292;2023-02-13T15:39:23;22.13;;;12.33;;
4468;SDS011;2247;42.666;23.292;2023-02-13T15:41:53;22.50;;;12.73;;
4468;SDS011;2247;42.666;23.292;2023-02-13T15:44:23;20.77;;;11.73;;
4468;SDS011;2247;42.666;23.292;2023-02-13T15:46:53;27.00;;;14.27;;
4468;SDS011;2247;42.666;23.292;2023-02-13T15:49:28;28.40;;;13.10;;
4468;SDS011;2247;42.666;23.292;2023-02-13T15:52:03;26.03;;;13.97;;
4468;SDS011;2247;42.666;23.292;2023-02-13T15:54:34;22.90;;;13.17;;
4468;SDS011;2247;42.666;23.292;2023-02-13T15:57:02;23.70;;;12.73;;
4468;SDS011;2247;42.666;23.292;2023-02-13T15:59:32;30.73;;;14.80;;
4468;SDS011;2247;42.666;23.292;2023-02-13T16:02:02;34.10;;;14.33;;
4468;SDS011;2247;42.666;23.292;2023-02-13T16:04:30;27.90;;;14.37;;
4468;SDS011;2247;42.666;23.292;2023-02-13T16:07:01;26.20;;;14.53;;
4468;SDS011;2247;42.666;23.292;2023-02-13T16:09:29;26.63;;;15.57;;
4468;SDS011;2247;42.666;23.292;2023-02-13T16:12:03;39.90;;;15.73;;
4468;SDS011;2247;42.666;23.292;2023-02-13T16:14:33;39.73;;;16.93;;
4468;SDS011;2247;42.666;23.292;2023-02-13T16:17:02;32.80;;;16.60;;
4468;SDS011;2247;42.666;23.292;2023-02-13T16:19:32;31.27;;;16.97;;
4468;SDS011;2247;42.666;23.292;2023-02-13T16:22:04;29.60;;;17.50;;
4468;SDS011;2247;42.666;23.292;2023-02-13T16:24:43;40.23;;;19.23;;
4468;SDS011;2247;42.666;23.292;2023-02-13T16:27:15;33.20;;;18.00;;
4468;SDS011;2247;42.666;23.292;2023-02-13T16:29:46;32.70;;;16.10;;
4468;SDS011;2247;42.666;23.292;2023-02-13T16:32:22;28.83;;;16.53;;
4468;SDS011;2247;42.666;23.292;2023-02-13T16:34:56;33.20;;;16.60;;
4468;SDS011;2247;42.666;23.292;2023-02-13T16:37:47;28.83;;;15.67;;
4468;SDS011;2247;42.666;23.292;2023-02-13T16:40:32;25.73;;;15.53;;
4468;SDS011;2247;42.666;23.292;2023-02-13T16:49:12;30.70;;;17.00;;
4468;SDS011;2247;42.666;23.292;2023-02-13T16:51:47;33.60;;;17.90;;
4468;SDS011;2247;42.666;23.292;2023-02-13T16:54:27;33.80;;;19.13;;
4468;SDS011;2247;42.666;23.292;2023-02-13T16:56:58;41.37;;;19.93;;
4468;SDS011;2247;42.666;23.292;2023-02-13T16:59:36;38.80;;;18.50;;
4468;SDS011;2247;42.666;23.292;2023-02-13T17:02:13;33.33;;;18.20;;
4468;SDS011;2247;42.666;23.292;2023-02-13T17:04:45;36.00;;;18.60;;
4468;SDS011;2247;42.666;23.292;2023-02-13T17:07:19;33.23;;;18.70;;
4468;SDS011;2247;42.666;23.292;2023-02-13T17:09:56;31.43;;;17.50;;
4468;SDS011;2247;42.666;23.292;2023-02-13T17:12:25;35.07;;;19.50;;
4468;SDS011;2247;42.666;23.292;2023-02-13T17:14:55;37.03;;;19.60;;
4468;SDS011;2247;42.666;23.292;2023-02-13T17:17:22;40.53;;;20.27;;
4468;SDS011;2247;42.666;23.292;2023-02-13T17:19:50;35.00;;;20.37;;
4468;SDS011;2247;42.666;23.292;2023-02-13T17:22:18;36.17;;;19.87;;
4468;SDS011;2247;42.666;23.292;2023-02-13T17:24:51;35.90;;;19.70;;
4468;SDS011;2247;42.666;23.292;2023-02-13T17:27:18;38.07;;;21.07;;
4468;SDS011;2247;42.666;23.292;2023-02-13T17:29:45;38.67;;;22.10;;
4468;SDS011;2247;42.666;23.292;2023-02-13T17:32:15;41.50;;;21.57;;
4468;SDS011;2247;42.666;23.292;2023-02-13T17:34:44;41.50;;;21.17;;
4468;SDS011;2247;42.666;23.292;2023-02-13T17:37:15;38.10;;;21.90;;
4468;SDS011;2247;42.666;23.292;2023-02-13T17:39:44;30.53;;;18.00;;
4468;SDS011;2247;42.666;23.292;2023-02-13T17:42:13;39.57;;;21.43;;
4468;SDS011;2247;42.666;23.292;2023-02-13T17:44:44;42.70;;;20.93;;
4468;SDS011;2247;42.666;23.292;2023-02-13T17:47:11;39.50;;;21.00;;
4468;SDS011;2247;42.666;23.292;2023-02-13T17:49:39;34.80;;;20.60;;
4468;SDS011;2247;42.666;23.292;2023-02-13T17:52:06;38.10;;;20.00;;
4468;SDS011;2247;42.666;23.292;2023-02-13T17:54:39;45.40;;;20.60;;
4468;SDS011;2247;42.666;23.292;2023-02-13T17:57:08;35.93;;;20.37;;
4468;SDS011;2247;42.666;23.292;2023-02-13T17:59:36;33.97;;;19.63;;
4468;SDS011;2247;42.666;23.292;2023-02-13T18:02:02;34.47;;;18.93;;
4468;SDS011;2247;42.666;23.292;2023-02-13T18:04:29;34.03;;;19.30;;
4468;SDS011;2247;42.666;23.292;2023-02-13T18:06:57;37.13;;;20.03;;
4468;SDS011;2247;42.666;23.292;2023-02-13T18:09:24;42.30;;;19.70;;
4468;SDS011;2247;42.666;23.292;2023-02-13T18:11:51;34.13;;;18.10;;
4468;SDS011;2247;42.666;23.292;2023-02-13T18:14:18;41.67;;;19.90;;
4468;SDS011;2247;42.666;23.292;2023-02-13T18:16:46;33.93;;;19.10;;
4468;SDS011;2247;42.666;23.292;2023-02-13T18:19:14;33.20;;;18.63;;
4468;SDS011;2247;42.666;23.292;2023-02-13T18:21:41;36.20;;;19.37;;
4468;SDS011;2247;42.666;23.292;2023-02-13T18:24:10;32.90;;;18.03;;
4468;SDS011;2247;42.666;23.292;2023-02-13T18:26:36;33.53;;;19.13;;
4468;SDS011;2247;42.666;23.292;2023-02-13T18:29:04;37.93;;;18.50;;
4468;SDS011;2247;42.666;23.292;2023-02-13T18:31:31;33.90;;;18.87;;
4468;SDS011;2247;42.666;23.292;2023-02-13T18:33:57;31.17;;;18.37;;